DAL757 KATL-KPHX
Flight info
| Callsign | DAL757 |
|---|---|
| Flight time | N/A |
| Altitude | 30000 |
| Route | NASSA2 YAALL J14 IRW J6 ZUN EAGUL6 |
| Aircraft | A321/M-SDE3FGHIRWY/LB1 |
Departure
| Time | 2026-05-04 01:18 |
|---|---|
| Airport | Hartsfield Jackson Atlanta International Airport (KATL) |
Arrival
| Time | N/A |
|---|---|
| Airport | Phoenix Sky Harbor International Airport (KPHX) |
| Time | Latitude | Longitude | Altitude | Speed | Heading |
|---|---|---|---|---|---|
| 2026-05-04 01:02 | 33.64381 | -84.43522 | 1006 ft | 0 kts | 269° |
| 2026-05-04 01:09 | 33.64381 | -84.43521 | 1006 ft | 1 kts | 269° |
| 2026-05-04 01:09 | 33.64381 | -84.43493 | 1006 ft | 4 kts | 271° |
| 2026-05-04 01:09 | 33.64377 | -84.43464 | 1006 ft | 4 kts | 315° |
| 2026-05-04 01:09 | 33.64370 | -84.43458 | 1006 ft | 0 kts | 359° |
| 2026-05-04 01:12 | 33.64396 | -84.43459 | 1006 ft | 6 kts | 358° |
| 2026-05-04 01:12 | 33.64444 | -84.43436 | 1006 ft | 10 kts | 42° |
| 2026-05-04 01:13 | 33.64460 | -84.43337 | 1006 ft | 14 kts | 90° |
| 2026-05-04 01:13 | 33.64460 | -84.43213 | 1007 ft | 17 kts | 90° |
| 2026-05-04 01:13 | 33.64459 | -84.43044 | 1006 ft | 22 kts | 90° |
| 2026-05-04 01:13 | 33.64459 | -84.42861 | 1006 ft | 20 kts | 90° |
| 2026-05-04 01:14 | 33.64467 | -84.42686 | 1006 ft | 25 kts | 86° |
| 2026-05-04 01:14 | 33.64469 | -84.42447 | 1006 ft | 29 kts | 90° |
| 2026-05-04 01:14 | 33.64496 | -84.42214 | 1006 ft | 28 kts | 60° |
| 2026-05-04 01:14 | 33.64543 | -84.42005 | 1006 ft | 25 kts | 87° |
| 2026-05-04 01:15 | 33.64542 | -84.41802 | 1005 ft | 24 kts | 89° |
| 2026-05-04 01:15 | 33.64543 | -84.41615 | 1007 ft | 21 kts | 90° |
| 2026-05-04 01:15 | 33.64544 | -84.41411 | 1007 ft | 28 kts | 89° |
| 2026-05-04 01:15 | 33.64544 | -84.41172 | 1007 ft | 28 kts | 91° |
| 2026-05-04 01:16 | 33.64542 | -84.40949 | 1006 ft | 26 kts | 90° |
| 2026-05-04 01:16 | 33.64568 | -84.40742 | 1006 ft | 24 kts | 83° |
| 2026-05-04 01:16 | 33.64571 | -84.40622 | 1005 ft | 13 kts | 90° |
| 2026-05-04 01:16 | 33.64629 | -84.40568 | 1004 ft | 12 kts | 1° |
| 2026-05-04 01:17 | 33.64680 | -84.40613 | 1004 ft | 10 kts | 267° |
| 2026-05-04 01:17 | 33.64679 | -84.40713 | 1004 ft | 29 kts | 270° |
| 2026-05-04 01:17 | 33.64680 | -84.41260 | 1008 ft | 97 kts | 270° |
| 2026-05-04 01:17 | 33.64680 | -84.42326 | 1005 ft | 150 kts | 270° |
| 2026-05-04 01:18 | 33.64684 | -84.43688 | 1262 ft | 170 kts | 271° |
| 2026-05-04 01:18 | 33.64681 | -84.45096 | 1972 ft | 168 kts | 272° |
| 2026-05-04 01:18 | 33.64867 | -84.46486 | 2574 ft | 171 kts | 283° |
| 2026-05-04 01:18 | 33.65124 | -84.47936 | 2988 ft | 177 kts | 282° |
| 2026-05-04 01:19 | 33.65393 | -84.49442 | 3111 ft | 196 kts | 282° |
| 2026-05-04 01:19 | 33.65697 | -84.51120 | 3257 ft | 213 kts | 282° |
| 2026-05-04 01:19 | 33.66046 | -84.53040 | 3383 ft | 236 kts | 282° |
| 2026-05-04 01:19 | 33.66311 | -84.54488 | 3501 ft | 253 kts | 282° |
| 2026-05-04 01:20 | 33.66783 | -84.57075 | 4207 ft | 262 kts | 282° |
| 2026-05-04 01:20 | 33.67074 | -84.58668 | 4756 ft | 263 kts | 282° |
| 2026-05-04 01:20 | 33.67468 | -84.60891 | 5463 ft | 266 kts | 282° |
| 2026-05-04 01:20 | 33.67837 | -84.63078 | 6135 ft | 269 kts | 282° |
| 2026-05-04 01:21 | 33.68203 | -84.65297 | 6775 ft | 273 kts | 282° |
| 2026-05-04 01:21 | 33.68573 | -84.67541 | 7404 ft | 275 kts | 282° |
| 2026-05-04 01:21 | 33.68951 | -84.69802 | 8053 ft | 277 kts | 282° |
| 2026-05-04 01:21 | 33.69338 | -84.72105 | 8719 ft | 279 kts | 283° |
| 2026-05-04 01:22 | 33.69723 | -84.74390 | 9368 ft | 280 kts | 283° |
| 2026-05-04 01:22 | 33.69996 | -84.76717 | 10001 ft | 284 kts | 273° |
| 2026-05-04 01:22 | 33.69997 | -84.79135 | 10314 ft | 299 kts | 272° |
| 2026-05-04 01:22 | 33.69996 | -84.81705 | 10468 ft | 318 kts | 272° |
| 2026-05-04 01:23 | 33.69992 | -84.84442 | 10592 ft | 337 kts | 271° |
| 2026-05-04 01:23 | 33.69985 | -84.87303 | 10959 ft | 345 kts | 271° |
| 2026-05-04 01:23 | 33.69975 | -84.90196 | 11508 ft | 349 kts | 271° |
| 2026-05-04 01:23 | 33.69967 | -84.93115 | 12091 ft | 351 kts | 271° |
| 2026-05-04 01:24 | 33.69959 | -84.96054 | 12684 ft | 353 kts | 271° |
| 2026-05-04 01:24 | 33.69948 | -84.99008 | 13282 ft | 355 kts | 271° |
| 2026-05-04 01:24 | 33.69936 | -85.01981 | 13882 ft | 357 kts | 271° |
| 2026-05-04 01:24 | 33.69926 | -85.04974 | 14409 ft | 360 kts | 271° |
| 2026-05-04 01:25 | 33.69918 | -85.07986 | 14899 ft | 362 kts | 271° |
| 2026-05-04 01:25 | 33.69908 | -85.11023 | 15406 ft | 365 kts | 271° |
| 2026-05-04 01:25 | 33.69898 | -85.14076 | 15908 ft | 367 kts | 271° |
| 2026-05-04 01:25 | 33.69882 | -85.17149 | 16410 ft | 369 kts | 271° |
| 2026-05-04 01:26 | 33.69866 | -85.20241 | 16909 ft | 371 kts | 271° |
| 2026-05-04 01:26 | 33.69854 | -85.23347 | 17391 ft | 373 kts | 271° |
| 2026-05-04 01:26 | 33.69834 | -85.26470 | 17869 ft | 375 kts | 271° |
| 2026-05-04 01:26 | 33.69802 | -85.29683 | 18350 ft | 378 kts | 270° |
| 2026-05-04 01:27 | 33.69763 | -85.32819 | 18730 ft | 380 kts | 270° |
| 2026-05-04 01:27 | 33.69719 | -85.36001 | 19130 ft | 382 kts | 270° |
| 2026-05-04 01:27 | 33.69677 | -85.39193 | 19529 ft | 384 kts | 270° |
| 2026-05-04 01:27 | 33.69639 | -85.42406 | 19923 ft | 385 kts | 270° |
| 2026-05-04 01:28 | 33.69600 | -85.45631 | 20294 ft | 388 kts | 271° |
| 2026-05-04 01:28 | 33.69560 | -85.48879 | 20683 ft | 390 kts | 271° |
| 2026-05-04 01:28 | 33.69519 | -85.52159 | 21077 ft | 392 kts | 271° |
| 2026-05-04 01:28 | 33.69479 | -85.55440 | 21462 ft | 394 kts | 271° |
| 2026-05-04 01:29 | 33.69358 | -85.64940 | 22553 ft | 399 kts | 271° |
| 2026-05-04 01:29 | 33.69170 | -85.78396 | 23971 ft | 407 kts | 270° |
| 2026-05-04 01:29 | 33.68965 | -85.92083 | 25189 ft | 414 kts | 271° |
| 2026-05-04 01:29 | 33.68863 | -86.06008 | 26309 ft | 419 kts | 278° |
| 2026-05-04 01:30 | 33.70000 | -86.20039 | 27427 ft | 424 kts | 277° |
| 2026-05-04 01:30 | 33.71099 | -86.34206 | 28470 ft | 429 kts | 277° |
| 2026-05-04 01:30 | 33.72183 | -86.48574 | 29468 ft | 434 kts | 277° |
| 2026-05-04 01:30 | 33.73241 | -86.62552 | 30051 ft | 433 kts | 278° |
| 2026-05-04 01:31 | 33.73513 | -86.66150 | 30141 ft | 428 kts | 278° |
| 2026-05-04 01:31 | 33.74072 | -86.73606 | 30153 ft | 428 kts | 278° |